Time;durP1;ratioP1;P1;durP2;ratioP2;P2;SDS_P1;SDS_P2;PMS_P1;PMS_P2;Temp;Humidity;BMP_temperature;BMP_pressure;BME280_temperature;BME280_humidity;BME280_pressure;Samples;Min_cycle;Max_cycle;Signal;HPM_P1;HPM_P2
2021/04/07 00:00:43;;;;;;;2.73;1.53;;;4.20;99.90;;;;;;4867467;29;20202;-83
2021/04/07 00:03:10;;;;;;;4.50;1.53;;;4.10;99.90;;;;;;4884170;29;20178;-82
2021/04/07 00:05:41;;;;;;;2.53;1.83;;;4.20;99.90;;;;;;4852993;29;20546;-82
2021/04/07 00:08:08;;;;;;;2.15;1.70;;;4.10;99.90;;;;;;4874201;29;20185;-82
2021/04/07 00:10:37;;;;;;;3.22;1.67;;;3.80;99.90;;;;;;4889899;29;20274;-82
2021/04/07 00:13:03;;;;;;;3.95;1.75;;;3.90;99.90;;;;;;4871507;29;20253;-82
2021/04/07 00:15:29;;;;;;;1.83;1.60;;;3.90;99.90;;;;;;4873933;29;20647;-82
2021/04/07 00:17:56;;;;;;;3.50;1.33;;;3.90;99.90;;;;;;4867777;29;20194;-82
2021/04/07 00:20:24;;;;;;;1.73;1.23;;;3.80;99.90;;;;;;4868268;29;20297;-82
2021/04/07 00:22:50;;;;;;;3.65;1.45;;;3.70;99.90;;;;;;4868173;29;20578;-82
2021/04/07 00:25:19;;;;;;;1.38;1.27;;;3.70;99.90;;;;;;4883198;29;20206;-83
2021/04/07 00:27:56;;;;;;;1.40;1.30;;;3.70;99.90;;;;;;4866218;29;20175;-83
2021/04/07 00:30:26;;;;;;;3.13;1.85;;;3.70;99.90;;;;;;4882804;29;20205;-83
2021/04/07 00:32:55;;;;;;;2.45;1.38;;;3.80;99.90;;;;;;4884311;29;20631;-83
2021/04/07 00:35:21;;;;;;;3.50;1.20;;;3.70;99.90;;;;;;4882547;29;20615;-82
2021/04/07 00:37:47;;;;;;;1.57;1.33;;;3.50;99.90;;;;;;4865135;29;20189;-83
2021/04/07 00:40:16;;;;;;;1.97;1.33;;;3.70;99.90;;;;;;4860407;29;20486;-82
2021/04/07 00:42:43;;;;;;;2.30;1.55;;;3.90;99.90;;;;;;4866944;29;20511;-83
2021/04/07 00:45:11;;;;;;;7.50;1.55;;;3.80;99.90;;;;;;4866362;29;20211;-82
2021/04/07 00:47:37;;;;;;;1.83;1.45;;;3.70;99.90;;;;;;4866850;29;20179;-82
2021/04/07 00:50:05;;;;;;;1.95;1.30;;;3.60;99.90;;;;;;4866881;29;20298;-83
2021/04/07 00:52:30;;;;;;;4.07;1.90;;;3.70;99.90;;;;;;4867086;29;20583;-83
2021/04/07 00:54:56;;;;;;;2.20;1.33;;;3.70;99.90;;;;;;4866931;29;20191;-83
2021/04/07 00:57:24;;;;;;;2.03;1.20;;;3.70;99.90;;;;;;4867141;29;20717;-82
2021/04/07 00:59:51;;;;;;;6.82;1.98;;;3.70;99.90;;;;;;4883153;29;20435;-82
2021/04/07 01:02:18;;;;;;;3.70;1.25;;;3.80;99.90;;;;;;4851782;29;20182;-83
2021/04/07 01:04:44;;;;;;;2.78;1.55;;;3.90;99.90;;;;;;4866419;29;20198;-84
2021/04/07 01:07:11;;;;;;;3.00;1.83;;;3.80;99.90;;;;;;4865473;29;20224;-83
2021/04/07 01:09:38;;;;;;;1.98;1.38;;;3.90;99.90;;;;;;4864654;29;20211;-83
2021/04/07 01:12:07;;;;;;;3.15;1.80;;;3.80;99.90;;;;;;4883547;29;20305;-82
2021/04/07 01:14:33;;;;;;;2.90;1.55;;;3.70;99.90;;;;;;4886796;29;20182;-83
2021/04/07 01:17:04;;;;;;;2.42;1.90;;;3.90;99.90;;;;;;4852434;29;20274;-83
2021/04/07 01:19:29;;;;;;;6.88;1.55;;;3.90;99.90;;;;;;4887464;29;20195;-82
2021/04/07 01:22:04;;;;;;;2.80;1.57;;;3.90;99.90;;;;;;4866159;29;20186;-82
2021/04/07 01:24:31;;;;;;;3.92;2.40;;;4.00;99.90;;;;;;4868657;29;20451;-83
2021/04/07 01:27:00;;;;;;;4.15;1.70;;;4.00;99.90;;;;;;4855532;29;20208;-84
2021/04/07 01:29:26;;;;;;;5.68;1.50;;;4.10;99.90;;;;;;4870999;29;20191;-83
2021/04/07 01:31:54;;;;;;;2.00;1.30;;;3.90;99.90;;;;;;4870635;29;20262;-83
2021/04/07 01:34:29;;;;;;;1.92;1.58;;;3.90;99.90;;;;;;4855518;29;20450;-83
2021/04/07 01:36:56;;;;;;;2.30;1.90;;;3.80;99.90;;;;;;4870516;29;20257;-83
2021/04/07 01:39:26;;;;;;;1.92;1.45;;;3.70;99.90;;;;;;4870265;29;20258;-83
2021/04/07 01:41:54;;;;;;;2.72;1.70;;;3.60;99.90;;;;;;4870315;29;20234;-82
2021/04/07 01:44:22;;;;;;;6.55;2.13;;;3.70;99.90;;;;;;4869678;29;20277;-82
2021/04/07 01:46:49;;;;;;;1.40;1.15;;;3.60;99.90;;;;;;4870919;29;20234;-83
2021/04/07 01:49:15;;;;;;;3.45;1.67;;;3.80;99.90;;;;;;4887069;29;20286;-83
2021/04/07 01:51:41;;;;;;;1.65;1.20;;;3.80;99.90;;;;;;4887572;29;20266;-84
2021/04/07 01:54:10;;;;;;;4.70;1.65;;;4.00;99.90;;;;;;4854993;29;20227;-83
2021/04/07 01:57:18;;;;;;;;;;;;;;;;;;;;;
2021/04/07 01:59:44;;;;;;;2.05;1.30;;;4.10;99.90;;;;;;4841755;29;20293;-83
2021/04/07 02:02:12;;;;;;;9.13;1.70;;;4.20;99.90;;;;;;4869817;29;20226;-83
2021/04/07 02:04:39;;;;;;;1.33;1.23;;;3.80;99.90;;;;;;4869856;29;20207;-83
2021/04/07 02:07:13;;;;;;;1.65;1.52;;;4.00;99.90;;;;;;4869432;29;20673;-83
2021/04/07 02:09:39;;;;;;;5.22;1.73;;;3.80;99.90;;;;;;4869866;29;20228;-83
2021/04/07 02:12:05;;;;;;;2.08;1.75;;;3.60;99.90;;;;;;4869215;29;20175;-82
2021/04/07 02:14:31;;;;;;;3.13;1.50;;;3.50;99.90;;;;;;4885920;29;20186;-83
2021/04/07 02:16:59;;;;;;;7.38;1.98;;;3.50;99.90;;;;;;4886393;29;20186;-82
2021/04/07 02:19:26;;;;;;;6.53;1.65;;;3.40;99.90;;;;;;4886243;29;20198;-83
2021/04/07 02:22:01;;;;;;;4.30;1.10;;;3.60;99.90;;;;;;4871776;29;20175;-82
2021/04/07 02:24:28;;;;;;;2.00;1.75;;;3.70;99.90;;;;;;4868696;29;20718;-82
2021/04/07 02:26:53;;;;;;;1.20;1.05;;;3.70;99.90;;;;;;4868935;29;20178;-83
2021/04/07 02:29:19;;;;;;;4.20;1.87;;;3.60;99.90;;;;;;4853069;29;20266;-82
2021/04/07 02:31:47;;;;;;;3.87;1.93;;;3.60;99.90;;;;;;4868171;29;20274;-83
2021/04/07 02:34:12;;;;;;;1.75;1.45;;;3.60;99.90;;;;;;4885388;29;20211;-84
2021/04/07 02:36:38;;;;;;;7.93;1.70;;;3.70;99.90;;;;;;4868840;29;20215;-84
2021/04/07 02:39:05;;;;;;;4.73;1.83;;;3.80;99.90;;;;;;4870436;29;20195;-83
2021/04/07 02:41:31;;;;;;;2.72;1.27;;;3.80;99.90;;;;;;4854198;29;20423;-83
2021/04/07 02:43:56;;;;;;;1.60;1.43;;;3.70;99.90;;;;;;4886413;29;20175;-84
2021/04/07 02:46:23;;;;;;;1.83;1.00;;;3.70;99.90;;;;;;4883096;29;20459;-83
2021/04/07 02:48:48;;;;;;;6.63;1.80;;;3.70;99.90;;;;;;4887802;29;20186;-83
2021/04/07 02:51:14;;;;;;;10.63;1.60;;;3.60;99.90;;;;;;4887708;29;20206;-82
2021/04/07 02:53:39;;;;;;;2.07;1.37;;;3.70;99.90;;;;;;4886719;29;20265;-83
2021/04/07 02:56:08;;;;;;;2.13;1.23;;;3.70;99.90;;;;;;4900818;29;20196;-84
2021/04/07 02:58:36;;;;;;;5.03;2.47;;;4.00;99.90;;;;;;4870218;29;20192;-83
2021/04/07 03:01:02;;;;;;;3.15;1.75;;;3.90;99.90;;;;;;4871003;29;20183;-82
2021/04/07 03:03:33;;;;;;;3.83;1.67;;;3.80;99.90;;;;;;4869460;29;20194;-84
2021/04/07 03:05:59;;;;;;;1.60;1.30;;;3.70;99.90;;;;;;4869419;29;20578;-83
2021/04/07 03:08:25;;;;;;;1.40;1.30;;;3.50;99.90;;;;;;4853765;29;20179;-84
2021/04/07 03:10:50;;;;;;;4.73;1.90;;;3.50;99.90;;;;;;4869083;29;20202;-82
2021/04/07 03:13:17;;;;;;;1.30;1.20;;;3.50;99.90;;;;;;4868755;29;20198;-83
2021/04/07 03:15:43;;;;;;;11.73;2.35;;;3.30;99.90;;;;;;4868907;29;20543;-83
2021/04/07 03:18:09;;;;;;;3.23;1.83;;;3.40;99.90;;;;;;4852797;29;20183;-85
2021/04/07 03:20:34;;;;;;;4.60;2.50;;;3.50;99.90;;;;;;4868456;29;20294;-83
2021/04/07 03:23:00;;;;;;;2.90;1.57;;;3.70;99.90;;;;;;4867497;29;20250;-82
2021/04/07 03:25:25;;;;;;;2.97;1.53;;;3.60;99.90;;;;;;4871708;29;20211;-82
2021/04/07 03:27:51;;;;;;;1.53;1.27;;;3.60;99.90;;;;;;4853052;29;20183;-81
2021/04/07 03:30:17;;;;;;;3.73;1.67;;;3.60;99.90;;;;;;4868880;29;20705;-82
2021/04/07 03:32:43;;;;;;;5.05;2.45;;;3.80;99.90;;;;;;4854018;29;20182;-83
2021/04/07 03:35:09;;;;;;;2.50;1.23;;;3.50;99.90;;;;;;4868174;29;20189;-84
2021/04/07 03:37:34;;;;;;;2.40;1.50;;;3.40;99.90;;;;;;4853115;29;20183;-85
2021/04/07 03:40:00;;;;;;;2.90;1.50;;;3.60;99.90;;;;;;4868028;29;20211;-83
2021/04/07 03:42:26;;;;;;;6.90;1.83;;;3.60;99.90;;;;;;4852696;29;20681;-83
2021/04/07 03:44:51;;;;;;;2.23;1.80;;;3.70;99.90;;;;;;4851702;29;20226;-83
2021/04/07 03:47:17;;;;;;;5.70;2.17;;;3.90;99.90;;;;;;4851630;29;20186;-82
2021/04/07 03:49:42;;;;;;;8.10;2.83;;;4.10;99.90;;;;;;4851310;29;20203;-83
2021/04/07 03:52:08;;;;;;;2.30;1.67;;;4.00;99.90;;;;;;4850985;29;20198;-82
2021/04/07 03:54:35;;;;;;;2.93;1.80;;;4.10;99.90;;;;;;4888793;29;20183;-82
2021/04/07 03:57:01;;;;;;;1.85;1.50;;;3.70;99.90;;;;;;4874274;29;20183;-83
2021/04/07 03:59:26;;;;;;;2.07;1.67;;;3.70;99.90;;;;;;4880151;29;20183;-81
2021/04/07 04:01:52;;;;;;;5.03;2.27;;;3.90;99.90;;;;;;4881200;29;20512;-84
2021/04/07 04:04:17;;;;;;;3.63;2.10;;;3.70;99.90;;;;;;4867928;29;20263;-84
2021/04/07 04:06:45;;;;;;;4.40;1.93;;;3.70;99.90;;;;;;4853098;29;20190;-84
2021/04/07 04:09:12;;;;;;;4.07;2.90;;;3.80;99.90;;;;;;4868629;29;20266;-84
2021/04/07 04:11:37;;;;;;;4.53;2.20;;;3.90;99.90;;;;;;4868538;29;20182;-84
2021/04/07 04:14:03;;;;;;;3.27;2.47;;;4.10;99.90;;;;;;4885379;29;20175;-84
2021/04/07 04:16:29;;;;;;;3.07;2.23;;;3.80;99.90;;;;;;4868034;29;20287;-83
2021/04/07 04:18:54;;;;;;;3.50;2.40;;;3.70;99.90;;;;;;4852227;29;20203;-83
2021/04/07 04:21:20;;;;;;;4.93;2.83;;;3.80;99.90;;;;;;4867141;29;20273;-84
2021/04/07 04:23:48;;;;;;;5.88;2.45;;;3.80;99.90;;;;;;4866487;29;20183;-84
2021/04/07 04:26:13;;;;;;;2.65;2.05;;;3.80;99.90;;;;;;4883367;29;20207;-84
2021/04/07 04:28:39;;;;;;;2.40;2.10;;;3.70;99.90;;;;;;4887613;29;20178;-84
2021/04/07 04:31:05;;;;;;;4.93;2.33;;;3.60;99.90;;;;;;4884086;29;20175;-84
2021/04/07 04:33:30;;;;;;;3.00;2.50;;;3.60;99.90;;;;;;4852388;29;20179;-84
2021/04/07 04:35:57;;;;;;;6.73;1.70;;;3.40;99.90;;;;;;4867221;29;20340;-85
2021/04/07 04:38:24;;;;;;;4.22;1.80;;;3.50;99.90;;;;;;4867137;29;20265;-83
2021/04/07 04:40:50;;;;;;;3.65;1.95;;;3.20;99.90;;;;;;4883555;29;20262;-85
2021/04/07 04:43:15;;;;;;;4.90;2.53;;;3.20;99.90;;;;;;4866815;29;20202;-84
2021/04/07 04:45:43;;;;;;;2.33;1.80;;;3.30;99.90;;;;;;4867940;29;20206;-84
2021/04/07 04:48:09;;;;;;;2.35;1.55;;;3.50;99.90;;;;;;4860502;29;20179;-84
2021/04/07 04:50:34;;;;;;;5.07;1.67;;;3.50;99.90;;;;;;4889890;29;20619;-86
2021/04/07 04:53:00;;;;;;;6.43;2.30;;;3.60;99.90;;;;;;4867896;29;20262;-84
2021/04/07 04:55:28;;;;;;;3.17;2.10;;;3.80;99.90;;;;;;4869100;29;20791;-84
2021/04/07 04:57:57;;;;;;;11.02;2.45;;;3.70;99.90;;;;;;4869290;29;20182;-85
2021/04/07 05:00:23;;;;;;;6.82;2.50;;;3.70;99.90;;;;;;4872809;29;20227;-84
2021/04/07 05:02:49;;;;;;;3.37;1.90;;;3.60;99.90;;;;;;4873596;29;20799;-83
2021/04/07 05:05:17;;;;;;;17.53;2.70;;;3.80;99.90;;;;;;4890757;29;20552;-83
2021/04/07 05:07:43;;;;;;;4.28;1.88;;;4.10;99.90;;;;;;4873839;29;20435;-83
2021/04/07 05:10:09;;;;;;;6.77;2.33;;;3.80;99.90;;;;;;4890759;29;20198;-83
2021/04/07 05:12:34;;;;;;;6.18;2.80;;;3.60;99.90;;;;;;4874741;29;20190;-83
2021/04/07 05:15:00;;;;;;;5.23;2.23;;;3.70;99.90;;;;;;4874146;29;20182;-83
2021/04/07 05:17:28;;;;;;;8.30;2.23;;;3.80;99.90;;;;;;4873567;29;20187;-82
2021/04/07 05:19:53;;;;;;;3.70;2.33;;;3.70;99.90;;;;;;4887001;29;20198;-83
2021/04/07 05:22:19;;;;;;;16.53;2.60;;;3.60;99.90;;;;;;4855108;29;20192;-82
2021/04/07 05:24:44;;;;;;;5.27;2.17;;;3.40;99.90;;;;;;4880261;29;20462;-81
2021/04/07 05:27:10;;;;;;;10.07;2.60;;;3.40;99.90;;;;;;4883530;29;20639;-83
2021/04/07 05:29:36;;;;;;;7.70;2.57;;;3.30;99.90;;;;;;4858991;29;20543;-81
2021/04/07 05:32:01;;;;;;;5.13;3.03;;;3.20;99.90;;;;;;4875417;29;20198;-83
2021/04/07 05:34:27;;;;;;;6.93;2.40;;;3.20;99.90;;;;;;4881875;29;20186;-81
2021/04/07 05:36:54;;;;;;;6.20;2.57;;;3.40;99.90;;;;;;4854508;29;20185;-82
2021/04/07 05:39:19;;;;;;;3.30;2.53;;;3.80;99.90;;;;;;4882107;29;20627;-83
2021/04/07 05:41:45;;;;;;;5.40;3.30;;;4.00;99.90;;;;;;4868155;29;20214;-82
2021/04/07 05:44:10;;;;;;;4.17;3.00;;;4.10;99.90;;;;;;4894508;29;20202;-82
2021/04/07 05:46:36;;;;;;;4.90;2.30;;;3.60;99.90;;;;;;4888987;29;20425;-81
2021/04/07 05:49:02;;;;;;;3.10;2.00;;;3.30;99.90;;;;;;4867131;29;20289;-82
2021/04/07 05:51:28;;;;;;;2.57;1.90;;;3.40;99.90;;;;;;4857842;29;20434;-80
2021/04/07 05:53:53;;;;;;;7.37;2.47;;;3.30;99.90;;;;;;4853733;29;20198;-80
2021/04/07 05:56:19;;;;;;;5.20;2.30;;;3.40;99.90;;;;;;4853196;29;20187;-82
2021/04/07 05:58:44;;;;;;;4.37;2.47;;;3.40;99.90;;;;;;4869897;29;20191;-81
2021/04/07 06:01:10;;;;;;;3.60;2.50;;;3.50;99.90;;;;;;4861189;29;20563;-81
2021/04/07 06:03:35;;;;;;;5.87;2.30;;;3.80;99.90;;;;;;4854524;29;20298;-82
2021/04/07 06:06:01;;;;;;;2.73;2.00;;;4.10;99.90;;;;;;4853470;29;20567;-82
2021/04/07 06:08:26;;;;;;;4.43;1.90;;;4.10;99.90;;;;;;4885265;29;20202;-82
2021/04/07 06:10:52;;;;;;;8.80;2.33;;;3.80;99.90;;;;;;4850726;29;20600;-82
2021/04/07 06:13:20;;;;;;;7.20;1.93;;;3.70;99.90;;;;;;4863842;29;20230;-82
2021/04/07 06:15:46;;;;;;;3.38;1.35;;;3.90;99.90;;;;;;4854649;29;20191;-82
2021/04/07 06:18:13;;;;;;;2.53;2.13;;;4.10;99.90;;;;;;4863516;29;20194;-82
2021/04/07 06:20:43;;;;;;;4.80;2.85;;;4.10;99.90;;;;;;4868205;29;20211;-81
2021/04/07 06:23:10;;;;;;;2.38;1.83;;;3.80;99.90;;;;;;4867876;29;20969;-81
2021/04/07 06:25:37;;;;;;;3.97;2.78;;;3.90;99.90;;;;;;4868394;29;20678;-81
2021/04/07 06:28:05;;;;;;;5.78;2.63;;;3.90;99.90;;;;;;4884389;29;20178;-80
2021/04/07 06:30:48;;;;;;;3.50;2.28;;;3.80;99.90;;;;;;4879218;29;20198;-81
2021/04/07 06:33:19;;;;;;;11.73;4.18;;;3.70;99.90;;;;;;4858321;29;20175;-81
2021/04/07 06:35:50;;;;;;;5.97;2.03;;;3.60;99.90;;;;;;4876588;29;20187;-79
2021/04/07 06:38:17;;;;;;;5.05;2.75;;;4.70;99.90;;;;;;4863553;29;20187;-79
2021/04/07 06:40:43;;;;;;;12.02;4.30;;;4.90;99.90;;;;;;4851203;29;20302;-82
2021/04/07 06:43:09;;;;;;;2.83;1.92;;;5.10;99.90;;;;;;4876674;29;20192;-79
2021/04/07 06:45:38;;;;;;;7.72;2.65;;;5.20;99.90;;;;;;4855856;29;20211;-82
2021/04/07 06:48:04;;;;;;;6.25;2.05;;;5.50;99.90;;;;;;4893587;29;20674;-80
2021/04/07 06:50:30;;;;;;;6.50;2.65;;;5.70;99.90;;;;;;4867777;29;20231;-79
2021/04/07 06:52:59;;;;;;;6.33;2.40;;;5.80;99.90;;;;;;4868386;29;20661;-80
2021/04/07 06:55:25;;;;;;;4.03;2.38;;;5.50;99.90;;;;;;4882480;29;20183;-80
2021/04/07 06:57:52;;;;;;;3.28;2.42;;;5.00;99.90;;;;;;4866129;29;20186;-81
2021/04/07 07:00:18;;;;;;;4.22;1.95;;;4.80;99.90;;;;;;4874019;29;20210;-80
2021/04/07 07:02:44;;;;;;;10.85;2.17;;;5.20;99.90;;;;;;4866889;29;20242;-80
2021/04/07 07:05:13;;;;;;;4.20;3.03;;;5.50;99.90;;;;;;4869649;29;20194;-83
2021/04/07 07:08:12;;;;;;;;;;;;;;;;;;;;;
2021/04/07 07:11:04;;;;;;;;;;;;;;;;;;;;;
2021/04/07 07:13:34;;;;;;;4.28;2.20;;;4.40;99.90;;;;;;4884379;29;20274;-83
2021/04/07 07:16:06;;;;;;;4.35;2.05;;;4.10;99.90;;;;;;4883899;29;20548;-84
2021/04/07 07:18:32;;;;;;;4.47;3.15;;;3.70;99.90;;;;;;4867401;29;20266;-81
2021/04/07 07:21:25;;;;;;;;;;;;;;;;;;;;;
2021/04/07 07:23:52;;;;;;;2.40;2.03;;;3.70;99.90;;;;;;4872904;29;20278;-82
2021/04/07 07:26:19;;;;;;;7.97;2.80;;;3.90;99.90;;;;;;4849197;29;20238;-82
2021/04/07 07:29:33;;;;;;;9.00;2.13;;;4.10;99.90;;;;;;4865124;29;20423;-83
2021/04/07 07:32:24;;;;;;;10.15;2.30;;;4.20;99.90;;;;;;4846455;29;20191;-82
2021/04/07 07:34:50;;;;;;;8.60;2.63;;;4.10;99.90;;;;;;4874607;29;20183;-83
2021/04/07 07:37:24;;;;;;;2.73;2.00;;;3.80;99.90;;;;;;4858142;29;20217;-80
2021/04/07 07:39:49;;;;;;;4.05;2.78;;;4.00;99.90;;;;;;4856154;29;20207;-81
2021/04/07 07:42:16;;;;;;;3.40;2.70;;;4.00;99.90;;;;;;4855958;29;20596;-81
2021/04/07 07:44:42;;;;;;;4.18;2.58;;;4.00;99.90;;;;;;4850215;29;20479;-80
2021/04/07 07:47:25;;;;;;;6.43;3.07;;;4.00;99.90;;;;;;4849038;29;20175;-81
2021/04/07 07:49:59;;;;;;;4.30;2.83;;;4.30;99.90;;;;;;4865314;29;20436;-81
2021/04/07 07:52:26;;;;;;;12.27;2.92;;;4.50;99.90;;;;;;4864984;29;20181;-81
2021/04/07 07:54:52;;;;;;;4.60;2.03;;;4.50;99.90;;;;;;4851185;29;20187;-81
2021/04/07 07:57:25;;;;;;;7.63;3.17;;;4.20;99.90;;;;;;4867415;29;20189;-81
2021/04/07 08:00:09;;;;;;;4.20;2.78;;;4.00;99.90;;;;;;4865637;29;20229;-81
2021/04/07 08:02:50;;;;;;;8.45;2.63;;;4.00;99.90;;;;;;4849088;29;20667;-81
2021/04/07 08:05:20;;;;;;;3.25;1.80;;;4.10;99.90;;;;;;4861594;29;20310;-83
2021/04/07 08:07:52;;;;;;;3.03;1.80;;;4.00;99.90;;;;;;4849991;29;20232;-82
2021/04/07 08:10:18;;;;;;;3.38;2.90;;;4.10;99.90;;;;;;4869879;29;20594;-82
2021/04/07 08:12:49;;;;;;;10.53;3.10;;;4.40;99.90;;;;;;4885733;29;20200;-82
2021/04/07 08:15:17;;;;;;;12.65;3.25;;;4.40;99.90;;;;;;4883845;29;20175;-83
2021/04/07 08:17:54;;;;;;;9.23;2.50;;;4.30;99.90;;;;;;4869806;29;20190;-83
2021/04/07 08:20:31;;;;;;;5.20;2.42;;;4.50;99.90;;;;;;4867910;29;20303;-83
2021/04/07 08:22:57;;;;;;;3.25;2.13;;;4.60;99.90;;;;;;4866244;29;20207;-83
2021/04/07 08:25:30;;;;;;;4.07;2.03;;;4.70;99.90;;;;;;4863386;29;20206;-83
2021/04/07 08:28:09;;;;;;;3.15;1.98;;;4.70;99.90;;;;;;4887845;29;20169;-84
2021/04/07 08:30:35;;;;;;;9.77;2.20;;;4.80;99.90;;;;;;4856673;29;20198;-82
2021/04/07 08:33:02;;;;;;;6.80;2.40;;;4.90;99.90;;;;;;4866463;29;20186;-81
2021/04/07 08:35:28;;;;;;;6.85;2.40;;;5.00;99.90;;;;;;4884388;29;20197;-83
2021/04/07 08:38:02;;;;;;;12.10;2.80;;;5.00;99.90;;;;;;4875984;29;20211;-83
2021/04/07 08:40:45;;;;;;;5.53;2.30;;;5.10;99.90;;;;;;4870497;29;20198;-82
2021/04/07 08:43:13;;;;;;;4.00;1.98;;;5.20;99.90;;;;;;4866957;29;20250;-82
2021/04/07 08:45:46;;;;;;;6.75;1.98;;;5.00;99.90;;;;;;4864544;29;20214;-81
2021/04/07 08:48:35;;;;;;;4.32;2.33;;;5.30;99.90;;;;;;4853981;29;20198;-82
2021/04/07 08:51:08;;;;;;;6.65;2.40;;;5.40;99.90;;;;;;4857587;29;20212;-82
2021/04/07 08:53:43;;;;;;;6.88;1.90;;;5.30;99.90;;;;;;4868427;29;20186;-81
2021/04/07 08:56:11;;;;;;;6.05;1.65;;;5.30;99.90;;;;;;4856639;29;20192;-82
2021/04/07 08:58:54;;;;;;;4.95;1.80;;;5.20;99.90;;;;;;4877061;29;20187;-80
2021/04/07 09:01:30;;;;;;;2.22;1.90;;;5.20;99.90;;;;;;4867277;29;20183;-82
2021/04/07 09:04:18;;;;;;;6.35;2.28;;;5.60;99.90;;;;;;4856801;29;20187;-82
2021/04/07 09:07:01;;;;;;;3.15;2.10;;;5.40;99.90;;;;;;4851429;29;20206;-81
2021/04/07 09:09:27;;;;;;;5.60;2.38;;;5.40;99.90;;;;;;4865606;29;20235;-82
2021/04/07 09:11:56;;;;;;;12.25;2.35;;;5.50;99.90;;;;;;4888124;29;20202;-82
2021/04/07 09:14:22;;;;;;;7.70;3.03;;;5.40;99.90;;;;;;4878951;29;20167;-83
2021/04/07 09:16:48;;;;;;;3.57;1.50;;;5.50;99.90;;;;;;4884600;29;20197;-83
2021/04/07 09:19:29;;;;;;;3.35;2.13;;;5.70;99.90;;;;;;4882385;29;20198;-83
2021/04/07 09:22:29;;;;;;;2.45;2.13;;;5.80;99.90;;;;;;4848331;29;20201;-82
2021/04/07 09:24:55;;;;;;;3.20;1.75;;;5.80;99.90;;;;;;4847239;29;20242;-82
2021/04/07 09:27:31;;;;;;;7.20;1.80;;;6.00;99.90;;;;;;4851422;29;20219;-82
2021/04/07 09:30:04;;;;;;;8.50;1.88;;;6.00;99.90;;;;;;4882091;29;20202;-81
2021/04/07 09:32:33;;;;;;;3.15;1.70;;;5.70;99.90;;;;;;4834271;29;20440;-82
2021/04/07 09:35:03;;;;;;;2.90;1.50;;;5.40;99.90;;;;;;4852058;29;20263;-82
2021/04/07 09:37:35;;;;;;;4.30;1.60;;;5.40;99.90;;;;;;4862327;29;20191;-82
2021/04/07 09:40:04;;;;;;;2.45;1.98;;;5.50;99.90;;;;;;4852481;29;20290;-82
2021/04/07 09:42:30;;;;;;;4.82;2.17;;;5.60;99.90;;;;;;4833093;29;20217;-83
2021/04/07 09:45:00;;;;;;;6.82;2.33;;;5.80;99.90;;;;;;4855521;29;20211;-83
2021/04/07 09:47:29;;;;;;;5.57;2.28;;;6.10;99.90;;;;;;4886331;29;20167;-82
2021/04/07 09:49:54;;;;;;;5.80;2.25;;;6.00;99.90;;;;;;4875822;29;20680;-83
2021/04/07 09:52:20;;;;;;;8.83;2.60;;;5.90;99.90;;;;;;4869095;29;20175;-83
2021/04/07 09:54:45;;;;;;;7.43;2.70;;;5.80;99.90;;;;;;4862529;29;20190;-83
2021/04/07 09:57:12;;;;;;;13.27;2.40;;;5.90;99.90;;;;;;4888259;29;20194;-83
2021/04/07 09:59:45;;;;;;;4.78;3.20;;;6.00;99.90;;;;;;4887002;29;20202;-83
2021/04/07 10:02:13;;;;;;;4.13;2.08;;;5.90;99.90;;;;;;4867893;29;20194;-83
2021/04/07 10:04:42;;;;;;;8.80;2.50;;;6.10;99.90;;;;;;4854701;29;20217;-83
2021/04/07 10:07:35;;;;;;;5.22;2.45;;;6.50;99.90;;;;;;4869067;29;20206;-84
2021/04/07 10:10:00;;;;;;;2.80;1.80;;;6.40;99.90;;;;;;4880391;29;20267;-82
2021/04/07 10:12:28;;;;;;;4.27;2.40;;;6.50;99.90;;;;;;4836505;29;20209;-82
2021/04/07 10:14:55;;;;;;;3.50;1.90;;;6.60;99.90;;;;;;4837797;29;20180;-82
2021/04/07 10:17:26;;;;;;;5.38;1.90;;;6.80;99.90;;;;;;4873888;29;20374;-82
2021/04/07 10:19:54;;;;;;;5.72;2.17;;;6.70;99.90;;;;;;4886251;29;20265;-82
2021/04/07 10:22:28;;;;;;;3.50;2.10;;;6.70;99.90;;;;;;4871810;29;20726;-82
2021/04/07 10:25:10;;;;;;;2.25;1.85;;;6.50;99.90;;;;;;4868095;29;20210;-81
2021/04/07 10:27:37;;;;;;;4.07;2.65;;;6.60;99.90;;;;;;4856786;29;20670;-82
2021/04/07 10:30:07;;;;;;;3.72;2.40;;;6.70;99.90;;;;;;4921585;23;20240;-81
2021/04/07 10:32:59;;;;;;;4.93;2.17;;;6.60;99.60;;;;;;4851920;29;20248;-84
2021/04/07 10:35:31;;;;;;;4.00;1.92;;;6.70;99.90;;;;;;4861395;29;20248;-82
2021/04/07 10:38:04;;;;;;;5.80;1.90;;;6.80;99.00;;;;;;4870869;29;20191;-82
2021/04/07 10:40:34;;;;;;;5.45;1.80;;;6.60;98.40;;;;;;4836301;29;20205;-81
2021/04/07 10:43:19;;;;;;;2.53;1.85;;;6.50;99.10;;;;;;4840726;29;20180;-82
2021/04/07 10:45:56;;;;;;;3.83;2.08;;;6.40;99.40;;;;;;4850123;29;20661;-81
2021/04/07 10:48:25;;;;;;;3.72;2.15;;;6.50;99.40;;;;;;4848747;29;20184;-81
2021/04/07 10:50:51;;;;;;;4.43;2.05;;;7.00;99.90;;;;;;4835684;29;20189;-82
2021/04/07 10:53:30;;;;;;;2.70;2.00;;;7.30;98.80;;;;;;4851914;29;20168;-81
2021/04/07 10:56:17;;;;;;;1.50;1.40;;;7.50;97.40;;;;;;4842733;29;20438;-82
2021/04/07 10:58:43;;;;;;;1.75;1.60;;;7.10;94.60;;;;;;4839493;29;20582;-82
2021/04/07 11:01:09;;;;;;;4.55;2.25;;;6.90;95.70;;;;;;4852312;29;20248;-81
2021/04/07 11:03:40;;;;;;;4.18;2.88;;;6.80;96.60;;;;;;4836014;29;20193;-82
2021/04/07 11:06:06;;;;;;;6.43;2.35;;;7.00;95.70;;;;;;4845030;29;20242;-82
2021/04/07 11:08:39;;;;;;;2.13;1.93;;;7.10;96.20;;;;;;4846310;29;20185;-81
2021/04/07 11:11:06;;;;;;;3.63;2.28;;;6.90;96.80;;;;;;4834904;29;20657;-83
2021/04/07 11:13:35;;;;;;;4.80;2.17;;;6.80;96.80;;;;;;4851792;29;20551;-81
2021/04/07 11:16:11;;;;;;;4.35;2.47;;;6.90;96.50;;;;;;4834982;29;20185;-81
2021/04/07 11:18:39;;;;;;;1.50;1.10;;;6.70;95.60;;;;;;4831038;29;20187;-82
2021/04/07 11:21:06;;;;;;;5.40;1.95;;;6.60;95.60;;;;;;4844946;29;20197;-82
2021/04/07 11:23:31;;;;;;;7.03;2.58;;;6.70;95.80;;;;;;4833202;29;20189;-81
2021/04/07 11:26:07;;;;;;;4.40;1.77;;;6.80;96.70;;;;;;4840958;29;20568;-82
2021/04/07 11:28:33;;;;;;;12.25;1.92;;;6.70;97.20;;;;;;4843212;29;20183;-82
2021/04/07 11:36:16;;;;;;;2.25;1.42;;;6.30;99.20;;;;;;4866847;29;20168;-82
2021/04/07 11:38:53;;;;;;;4.22;2.50;;;6.20;99.70;;;;;;4862857;29;20194;-82
2021/04/07 11:46:31;;;;;;;5.60;1.85;;;6.20;99.90;;;;;;4829771;29;20221;-81
2021/04/07 11:48:59;;;;;;;1.87;1.60;;;6.60;99.90;;;;;;4842562;29;20200;-82
2021/04/07 11:51:25;;;;;;;5.38;2.03;;;6.80;99.90;;;;;;4878230;29;20896;-82
2021/04/07 11:53:51;;;;;;;5.83;2.43;;;6.80;99.90;;;;;;4852736;29;20184;-82
2021/04/07 11:56:19;;;;;;;3.47;2.05;;;7.00;99.90;;;;;;4846838;29;20184;-83
2021/04/07 11:58:53;;;;;;;2.85;2.05;;;6.90;99.70;;;;;;4859399;29;20184;-81
2021/04/07 12:01:19;;;;;;;2.05;1.40;;;6.80;99.90;;;;;;4845033;29;20199;-82
2021/04/07 12:03:45;;;;;;;2.60;1.10;;;6.80;99.90;;;;;;4861182;29;20176;-82
2021/04/07 12:06:11;;;;;;;2.07;1.70;;;6.70;99.30;;;;;;4835197;29;20231;-82
2021/04/07 12:08:39;;;;;;;1.83;1.58;;;6.80;99.90;;;;;;4864734;29;20467;-82
2021/04/07 12:11:05;;;;;;;3.03;1.30;;;6.60;99.80;;;;;;4848347;29;20252;-83
2021/04/07 12:13:31;;;;;;;4.00;2.07;;;6.40;99.90;;;;;;4846351;29;20210;-82
2021/04/07 12:15:56;;;;;;;1.70;1.00;;;6.60;99.90;;;;;;4842795;29;20196;-83
2021/04/07 12:18:25;;;;;;;3.17;1.23;;;6.50;99.50;;;;;;4861959;29;20191;-82
2021/04/07 12:20:56;;;;;;;1.63;1.10;;;6.50;99.20;;;;;;4852909;29;20188;-82
2021/04/07 12:23:22;;;;;;;3.85;2.10;;;6.70;99.20;;;;;;4879970;29;20735;-82
2021/04/07 12:25:57;;;;;;;5.53;1.30;;;6.90;99.90;;;;;;4850061;29;20189;-83
2021/04/07 12:28:30;;;;;;;1.80;1.60;;;6.90;97.90;;;;;;4833597;29;20190;-83
2021/04/07 12:30:56;;;;;;;1.98;1.35;;;6.50;98.00;;;;;;4843846;29;20291;-82
2021/04/07 12:33:26;;;;;;;3.85;1.98;;;6.40;98.70;;;;;;4847088;29;20199;-83
2021/04/07 12:35:52;;;;;;;1.90;1.58;;;6.40;99.00;;;;;;4841129;29;20192;-82
2021/04/07 12:38:31;;;;;;;3.15;2.50;;;6.20;99.30;;;;;;4849877;29;20176;-83
2021/04/07 12:41:19;;;;;;;4.65;1.63;;;6.20;99.90;;;;;;4849666;29;20183;-81
2021/04/07 12:43:47;;;;;;;5.00;2.03;;;6.20;99.90;;;;;;4835327;29;20188;-82
2021/04/07 12:46:16;;;;;;;3.88;2.20;;;6.20;99.90;;;;;;4855994;29;20212;-82
2021/04/07 12:48:43;;;;;;;3.15;1.95;;;6.20;99.90;;;;;;4847125;29;20183;-82
2021/04/07 12:51:16;;;;;;;1.35;1.25;;;6.30;99.90;;;;;;4841249;29;20212;-81
2021/04/07 12:53:41;;;;;;;4.07;2.40;;;6.50;99.90;;;;;;4851592;29;20219;-81
2021/04/07 12:56:08;;;;;;;2.17;1.60;;;6.60;99.90;;;;;;4871598;29;20655;-85
2021/04/07 12:58:34;;;;;;;1.73;1.05;;;6.50;99.50;;;;;;4841800;29;20200;-82
2021/04/07 13:00:59;;;;;;;3.53;1.83;;;6.50;99.20;;;;;;4829336;29;20188;-82
2021/04/07 13:03:25;;;;;;;3.10;1.50;;;6.50;99.00;;;;;;4831972;29;20275;-82
2021/04/07 13:05:57;;;;;;;2.10;1.30;;;6.60;99.90;;;;;;4847098;29;20203;-82
2021/04/07 13:08:23;;;;;;;2.45;1.73;;;6.50;99.50;;;;;;4844078;29;20200;-83
2021/04/07 13:10:49;;;;;;;2.38;1.73;;;6.50;99.70;;;;;;4845609;29;20199;-84
2021/04/07 13:13:14;;;;;;;2.40;2.20;;;6.50;99.80;;;;;;4859598;29;20191;-81
2021/04/07 13:15:40;;;;;;;3.23;2.67;;;6.50;99.30;;;;;;4830594;29;20268;-83
2021/04/07 13:18:12;;;;;;;2.37;1.90;;;6.50;99.30;;;;;;4834452;29;20189;-84
2021/04/07 13:20:47;;;;;;;4.10;1.98;;;6.70;98.90;;;;;;4846699;29;20445;-84